Time;durP1;ratioP1;P1;durP2;ratioP2;P2;SDS_P1;SDS_P2;PMS_P1;PMS_P2;Temp;Humidity;BMP_temperature;BMP_pressure;BME280_temperature;BME280_humidity;BME280_pressure;Samples;Min_cycle;Max_cycle;Signal;HPM_P1;HPM_P2
2023/11/29 00:00:30;;;;;;;4.68;4.35;;;;;;;;;;4965651;28;20058;-77
2023/11/29 00:02:56;;;;;;;5.53;5.05;;;;;;;;;;4968153;28;20043;-76
2023/11/29 00:05:22;;;;;;;5.25;4.13;;;;;;;;;;4960914;28;20062;-76
2023/11/29 00:07:49;;;;;;;4.82;4.50;;;;;;;;;;4961258;28;20036;-77
2023/11/29 00:10:15;;;;;;;5.28;4.78;;;;;;;;;;4953449;28;20050;-77
2023/11/29 00:12:41;;;;;;;5.90;5.10;;;;;;;;;;4967291;28;20031;-77
2023/11/29 00:15:08;;;;;;;5.25;4.82;;;;;;;;;;4965819;28;20073;-76
2023/11/29 00:17:34;;;;;;;4.85;4.38;;;;;;;;;;4965949;28;20039;-77
2023/11/29 00:20:00;;;;;;;7.43;6.43;;;;;;;;;;4963401;28;20063;-77
2023/11/29 00:22:27;;;;;;;7.40;6.75;;;;;;;;;;4967853;28;20510;-76
2023/11/29 00:24:53;;;;;;;7.18;4.97;;;;;;;;;;4968548;28;20070;-76
2023/11/29 00:27:20;;;;;;;8.88;5.65;;;;;;;;;;4948802;28;20043;-76
2023/11/29 00:29:48;;;;;;;5.43;4.93;;;;;;;;;;4971336;28;20067;-76
2023/11/29 00:32:14;;;;;;;5.90;5.35;;;;;;;;;;4948106;28;20039;-77
2023/11/29 00:34:40;;;;;;;6.90;6.20;;;;;;;;;;4940809;28;20179;-76
2023/11/29 00:37:06;;;;;;;5.55;5.03;;;;;;;;;;4962524;28;20034;-76
2023/11/29 00:39:32;;;;;;;7.63;6.80;;;;;;;;;;4948466;28;20058;-76
2023/11/29 00:41:59;;;;;;;8.90;8.00;;;;;;;;;;4964516;28;20145;-75
2023/11/29 00:44:25;;;;;;;11.80;9.13;;;;;;;;;;4932553;28;20049;-76
2023/11/29 00:46:52;;;;;;;9.05;6.50;;;;;;;;;;4946784;29;20054;-77
2023/11/29 00:49:18;;;;;;;4.88;4.50;;;;;;;;;;4951111;28;20035;-76
2023/11/29 00:51:45;;;;;;;5.57;4.75;;;;;;;;;;4964750;28;20051;-77
2023/11/29 00:54:12;;;;;;;5.53;5.03;;;;;;;;;;4960962;28;20127;-76
2023/11/29 00:56:38;;;;;;;5.15;4.75;;;;;;;;;;4965515;28;20051;-76
2023/11/29 00:59:06;;;;;;;4.90;4.40;;;;;;;;;;4948866;28;20070;-77
2023/11/29 01:01:32;;;;;;;4.95;4.57;;;;;;;;;;4965890;28;20459;-77
2023/11/29 01:04:00;;;;;;;5.78;5.28;;;;;;;;;;4967389;28;20042;-77
2023/11/29 01:06:27;;;;;;;4.80;4.47;;;;;;;;;;4931684;28;20043;-77
2023/11/29 01:08:54;;;;;;;4.30;4.00;;;;;;;;;;4964906;28;20043;-76
2023/11/29 01:11:23;;;;;;;4.03;3.65;;;;;;;;;;4947721;28;20122;-78
2023/11/29 01:13:50;;;;;;;7.85;5.47;;;;;;;;;;4965054;28;20035;-77
2023/11/29 01:16:16;;;;;;;5.35;4.90;;;;;;;;;;4967356;28;20039;-76
2023/11/29 01:18:42;;;;;;;5.65;4.25;;;;;;;;;;4948539;28;20041;-77
2023/11/29 01:21:14;;;;;;;5.75;4.00;;;;;;;;;;4965094;28;20055;-77
2023/11/29 01:23:40;;;;;;;6.13;5.47;;;;;;;;;;4948574;28;20125;-77
2023/11/29 01:26:07;;;;;;;4.32;4.03;;;;;;;;;;4945867;28;20091;-77
2023/11/29 01:28:33;;;;;;;5.53;5.00;;;;;;;;;;4956192;28;20065;-77
2023/11/29 01:31:04;;;;;;;5.03;4.53;;;;;;;;;;4953741;28;20599;-76
2023/11/29 01:33:30;;;;;;;4.63;4.32;;;;;;;;;;4946563;28;20046;-76
2023/11/29 01:35:57;;;;;;;4.65;3.72;;;;;;;;;;4961859;28;20062;-76
2023/11/29 01:38:23;;;;;;;4.82;4.53;;;;;;;;;;4950789;29;20046;-77
2023/11/29 01:40:49;;;;;;;5.13;4.68;;;;;;;;;;4959677;28;20054;-77
2023/11/29 01:43:16;;;;;;;7.03;6.03;;;;;;;;;;4969266;28;20034;-78
2023/11/29 01:45:42;;;;;;;6.47;5.25;;;;;;;;;;4971741;28;20406;-77
2023/11/29 01:48:08;;;;;;;4.43;4.13;;;;;;;;;;4960400;28;20073;-76
2023/11/29 01:50:35;;;;;;;7.30;6.60;;;;;;;;;;4931697;28;20046;-78
2023/11/29 01:53:01;;;;;;;5.60;5.10;;;;;;;;;;4946715;28;20063;-77
2023/11/29 01:55:27;;;;;;;5.28;4.78;;;;;;;;;;4962821;28;20030;-77
2023/11/29 01:57:54;;;;;;;4.68;4.35;;;;;;;;;;4954862;28;20516;-77
2023/11/29 02:00:20;;;;;;;3.28;3.08;;;;;;;;;;4958607;28;20047;-76
2023/11/29 02:02:46;;;;;;;9.95;5.65;;;;;;;;;;4964033;28;20042;-77
2023/11/29 02:05:12;;;;;;;5.90;5.40;;;;;;;;;;4945848;28;20053;-76
2023/11/29 02:07:40;;;;;;;4.22;3.85;;;;;;;;;;4947119;28;20038;-77
2023/11/29 02:10:07;;;;;;;2.53;2.42;;;;;;;;;;4953464;28;20043;-76
2023/11/29 02:12:34;;;;;;;5.13;4.63;;;;;;;;;;4945142;28;20063;-76
2023/11/29 02:15:03;;;;;;;3.80;3.50;;;;;;;;;;4950184;28;20532;-76
2023/11/29 02:17:40;;;;;;;4.93;4.60;;;;;;;;;;4965409;28;20082;-76
2023/11/29 02:20:07;;;;;;;6.72;5.38;;;;;;;;;;4945738;28;20061;-75
2023/11/29 02:22:38;;;;;;;4.32;4.05;;;;;;;;;;4946607;28;20468;-75
2023/11/29 02:25:04;;;;;;;4.20;3.90;;;;;;;;;;4953604;28;20035;-75
2023/11/29 02:27:31;;;;;;;4.32;4.03;;;;;;;;;;4928458;29;20138;-75
2023/11/29 02:29:57;;;;;;;6.93;6.32;;;;;;;;;;4948428;28;20513;-75
2023/11/29 02:32:23;;;;;;;4.97;4.57;;;;;;;;;;4944803;28;20043;-75
2023/11/29 02:34:50;;;;;;;4.93;4.53;;;;;;;;;;4946446;28;20528;-75
2023/11/29 02:37:16;;;;;;;3.60;3.40;;;;;;;;;;4957590;28;20046;-74
2023/11/29 02:39:42;;;;;;;7.30;6.57;;;;;;;;;;4958214;28;20047;-76
2023/11/29 02:42:09;;;;;;;4.38;4.03;;;;;;;;;;4933635;28;20082;-75
2023/11/29 02:44:35;;;;;;;5.35;4.95;;;;;;;;;;4930569;28;20039;-75
2023/11/29 02:47:02;;;;;;;5.55;5.03;;;;;;;;;;4961713;28;20054;-75
2023/11/29 02:49:28;;;;;;;4.88;4.57;;;;;;;;;;4961694;28;20042;-75
2023/11/29 02:51:54;;;;;;;7.07;6.38;;;;;;;;;;4960536;28;20146;-75
2023/11/29 02:54:20;;;;;;;3.55;3.35;;;;;;;;;;4949228;29;20506;-76
2023/11/29 02:56:46;;;;;;;5.13;4.72;;;;;;;;;;4964689;28;20097;-76
2023/11/29 02:59:12;;;;;;;5.28;4.78;;;;;;;;;;4960317;28;20137;-75
2023/11/29 03:01:39;;;;;;;4.55;4.18;;;;;;;;;;4945953;28;20093;-75
2023/11/29 03:04:05;;;;;;;4.57;4.25;;;;;;;;;;4959304;28;20143;-75
2023/11/29 03:06:31;;;;;;;6.07;5.57;;;;;;;;;;4963204;28;20134;-75
2023/11/29 03:08:57;;;;;;;5.68;5.20;;;;;;;;;;4944026;28;20077;-76
2023/11/29 03:11:23;;;;;;;6.43;5.90;;;;;;;;;;4958256;28;20095;-75
2023/11/29 03:13:49;;;;;;;5.20;4.80;;;;;;;;;;4950349;28;20043;-75
2023/11/29 03:16:15;;;;;;;4.10;3.80;;;;;;;;;;4944435;28;20039;-75
2023/11/29 03:18:41;;;;;;;5.75;5.35;;;;;;;;;;4962914;28;20113;-76
2023/11/29 03:21:07;;;;;;;4.40;4.10;;;;;;;;;;4944639;28;20054;-75
2023/11/29 03:23:33;;;;;;;5.70;5.20;;;;;;;;;;4962821;28;20429;-74
2023/11/29 03:26:03;;;;;;;7.13;6.53;;;;;;;;;;4943460;29;20046;-75
2023/11/29 03:28:29;;;;;;;5.65;5.25;;;;;;;;;;4957691;28;20042;-77
2023/11/29 03:30:56;;;;;;;6.75;6.13;;;;;;;;;;4929224;28;20613;-75
2023/11/29 03:33:22;;;;;;;5.47;4.78;;;;;;;;;;4945216;29;20039;-75
2023/11/29 03:35:48;;;;;;;5.95;5.45;;;;;;;;;;4960848;28;20037;-76
2023/11/29 03:38:14;;;;;;;6.13;5.63;;;;;;;;;;4964214;28;20573;-76
2023/11/29 03:40:41;;;;;;;6.65;6.03;;;;;;;;;;4963598;28;20150;-75
2023/11/29 03:43:07;;;;;;;7.35;6.72;;;;;;;;;;4966725;28;20049;-75
2023/11/29 03:45:33;;;;;;;8.60;7.80;;;;;;;;;;4961103;28;20577;-76
2023/11/29 03:48:00;;;;;;;5.95;5.45;;;;;;;;;;4950133;28;20079;-76
2023/11/29 03:50:25;;;;;;;8.05;7.25;;;;;;;;;;4964447;28;20055;-76
2023/11/29 03:52:52;;;;;;;7.00;6.35;;;;;;;;;;4948099;28;20039;-75
2023/11/29 03:55:18;;;;;;;7.00;6.40;;;;;;;;;;4952111;29;20043;-76
2023/11/29 03:57:44;;;;;;;7.18;6.47;;;;;;;;;;4958192;28;20157;-75
2023/11/29 04:00:11;;;;;;;6.43;5.90;;;;;;;;;;4960284;28;20043;-76
2023/11/29 04:02:37;;;;;;;7.35;6.70;;;;;;;;;;4920809;28;20053;-75
2023/11/29 04:05:03;;;;;;;8.57;7.35;;;;;;;;;;4948554;28;20078;-76
2023/11/29 04:07:30;;;;;;;7.70;6.90;;;;;;;;;;4960823;28;20034;-76
2023/11/29 04:09:56;;;;;;;10.25;8.57;;;;;;;;;;4960746;28;20042;-75
2023/11/29 04:12:23;;;;;;;7.05;6.35;;;;;;;;;;4929027;28;20501;-75
2023/11/29 04:14:49;;;;;;;12.13;8.25;;;;;;;;;;4950803;28;20501;-75
2023/11/29 04:17:15;;;;;;;8.40;6.93;;;;;;;;;;4956718;28;20050;-76
2023/11/29 04:19:42;;;;;;;7.07;6.47;;;;;;;;;;4964303;28;20062;-74
2023/11/29 04:22:08;;;;;;;5.20;4.78;;;;;;;;;;4960785;28;20106;-75
2023/11/29 04:24:34;;;;;;;7.43;6.65;;;;;;;;;;4948783;28;20134;-74
2023/11/29 04:27:00;;;;;;;11.27;10.18;;;;;;;;;;4965480;28;20058;-75
2023/11/29 04:29:27;;;;;;;12.43;10.95;;;;;;;;;;4938622;29;20046;-74
2023/11/29 04:31:54;;;;;;;9.65;6.07;;;;;;;;;;4965336;28;20053;-74
2023/11/29 04:34:21;;;;;;;10.73;9.60;;;;;;;;;;4961826;28;20028;-74
2023/11/29 04:36:49;;;;;;;10.30;9.25;;;;;;;;;;4944600;28;20126;-75
2023/11/29 04:39:15;;;;;;;8.57;7.78;;;;;;;;;;4943879;28;20041;-75
2023/11/29 04:41:41;;;;;;;9.32;8.43;;;;;;;;;;4920559;28;20432;-76
2023/11/29 04:44:08;;;;;;;7.40;5.13;;;;;;;;;;4931239;28;20138;-75
2023/11/29 04:46:35;;;;;;;8.57;7.18;;;;;;;;;;4947339;28;20038;-75
2023/11/29 04:49:02;;;;;;;8.35;7.60;;;;;;;;;;4966381;28;20046;-80
2023/11/29 04:51:29;;;;;;;9.73;8.73;;;;;;;;;;4942621;28;20461;-76
2023/11/29 04:53:55;;;;;;;7.05;6.35;;;;;;;;;;4968436;28;20062;-80
2023/11/29 04:56:21;;;;;;;7.95;7.13;;;;;;;;;;4955524;29;20034;-80
2023/11/29 04:58:47;;;;;;;8.38;7.65;;;;;;;;;;4945865;28;20046;-80
2023/11/29 05:01:13;;;;;;;8.15;6.63;;;;;;;;;;4964756;28;20051;-80
2023/11/29 05:03:39;;;;;;;4.28;3.97;;;;;;;;;;4959325;29;20050;-80
2023/11/29 05:06:06;;;;;;;15.38;10.98;;;;;;;;;;4971874;28;20129;-78
2023/11/29 05:08:32;;;;;;;4.28;3.88;;;;;;;;;;4977939;28;20049;-78
2023/11/29 05:11:01;;;;;;;14.13;8.55;;;;;;;;;;4971050;28;20047;-77
2023/11/29 05:13:27;;;;;;;12.20;10.88;;;;;;;;;;4939817;29;20043;-76
2023/11/29 05:15:53;;;;;;;4.90;4.53;;;;;;;;;;4963437;28;20081;-75
2023/11/29 05:18:19;;;;;;;10.05;7.78;;;;;;;;;;4965263;28;20494;-75
2023/11/29 05:20:45;;;;;;;8.15;7.43;;;;;;;;;;4971962;28;20057;-76
2023/11/29 05:23:11;;;;;;;7.38;6.78;;;;;;;;;;4967116;28;20040;-75
2023/11/29 05:25:37;;;;;;;7.50;6.90;;;;;;;;;;4952583;28;20417;-76
2023/11/29 05:28:04;;;;;;;7.35;6.72;;;;;;;;;;4940598;28;20126;-75
2023/11/29 05:30:29;;;;;;;9.13;8.18;;;;;;;;;;4940516;28;20133;-76
2023/11/29 05:32:56;;;;;;;7.78;7.07;;;;;;;;;;4924576;28;20166;-75
2023/11/29 05:35:21;;;;;;;6.35;5.85;;;;;;;;;;4967336;28;20192;-76
2023/11/29 05:37:48;;;;;;;8.15;7.35;;;;;;;;;;4905585;29;20039;-75
2023/11/29 05:40:14;;;;;;;7.22;6.53;;;;;;;;;;4936596;28;20055;-76
2023/11/29 05:42:40;;;;;;;7.22;6.53;;;;;;;;;;4921116;28;20047;-76
2023/11/29 05:45:09;;;;;;;13.75;9.65;;;;;;;;;;4954466;28;20047;-76
2023/11/29 05:47:35;;;;;;;14.85;11.20;;;;;;;;;;4937408;28;20102;-76
2023/11/29 05:50:02;;;;;;;12.02;9.25;;;;;;;;;;4937800;29;20047;-77
2023/11/29 05:52:30;;;;;;;8.93;8.02;;;;;;;;;;4954777;28;20429;-78
2023/11/29 05:54:56;;;;;;;7.93;7.32;;;;;;;;;;4937359;28;20062;-76
2023/11/29 05:57:22;;;;;;;7.43;6.68;;;;;;;;;;4955518;28;20532;-79
2023/11/29 05:59:48;;;;;;;8.45;7.05;;;;;;;;;;4942626;29;20062;-78
2023/11/29 06:02:15;;;;;;;7.15;6.47;;;;;;;;;;4930675;28;20117;-77
2023/11/29 06:04:41;;;;;;;11.27;9.90;;;;;;;;;;4952863;28;20041;-75
2023/11/29 06:07:07;;;;;;;7.65;6.95;;;;;;;;;;4968288;28;20120;-76
2023/11/29 06:09:36;;;;;;;7.15;6.45;;;;;;;;;;4947183;28;20589;-75
2023/11/29 06:12:03;;;;;;;8.55;7.70;;;;;;;;;;4964165;28;20050;-76
2023/11/29 06:14:29;;;;;;;7.75;7.05;;;;;;;;;;4913397;28;20039;-75
2023/11/29 06:16:57;;;;;;;14.98;13.13;;;;;;;;;;4923182;28;20046;-77
2023/11/29 06:19:26;;;;;;;13.88;9.25;;;;;;;;;;4907186;29;20521;-77
2023/11/29 06:22:00;;;;;;;8.65;7.75;;;;;;;;;;4919840;28;20057;-76
2023/11/29 06:24:31;;;;;;;10.60;8.27;;;;;;;;;;4912971;28;20129;-77
2023/11/29 06:26:58;;;;;;;;;;;;;;;;;;4931280;28;20050;-76
2023/11/29 06:29:28;;;;;;;12.45;7.18;;;;;;;;;;4954938;28;19914;-77
2023/11/29 06:31:55;;;;;;;;;;;;;;;;;;4940293;28;20924;-76
2023/11/29 06:34:39;;;;;;;9.70;7.88;;;;;;;;;;4955742;28;19914;-77
2023/11/29 06:37:07;;;;;;;10.18;9.30;;;;;;;;;;4922480;28;20042;-77
2023/11/29 06:39:33;;;;;;;7.88;7.15;;;;;;;;;;4907198;28;20042;-77
2023/11/29 06:42:01;;;;;;;7.30;6.63;;;;;;;;;;4920955;28;20103;-76
2023/11/29 06:44:29;;;;;;;11.13;7.75;;;;;;;;;;4920021;28;20039;-76
2023/11/29 06:46:57;;;;;;;10.48;9.48;;;;;;;;;;4923388;28;20054;-75
2023/11/29 06:49:25;;;;;;;10.18;7.72;;;;;;;;;;4923960;28;20035;-75
2023/11/29 06:51:52;;;;;;;7.28;6.68;;;;;;;;;;4924070;28;20448;-75
2023/11/29 06:54:20;;;;;;;9.68;8.75;;;;;;;;;;4923282;28;20241;-75
2023/11/29 06:56:47;;;;;;;8.70;7.88;;;;;;;;;;4935663;29;20126;-75
2023/11/29 06:59:13;;;;;;;10.57;9.57;;;;;;;;;;4907737;28;20084;-76
2023/11/29 07:01:39;;;;;;;11.68;9.50;;;;;;;;;;4940845;28;20054;-75
2023/11/29 07:04:07;;;;;;;9.13;7.43;;;;;;;;;;4924323;28;20408;-75
2023/11/29 07:06:33;;;;;;;11.00;9.23;;;;;;;;;;4914493;29;20054;-75
2023/11/29 07:09:00;;;;;;;10.40;9.40;;;;;;;;;;4935377;29;20051;-75
2023/11/29 07:11:27;;;;;;;30.40;8.98;;;;;;;;;;4932706;28;20046;-75
2023/11/29 07:13:55;;;;;;;10.32;8.65;;;;;;;;;;4939797;28;20078;-75
2023/11/29 07:16:21;;;;;;;9.10;8.15;;;;;;;;;;4925157;28;20047;-75
2023/11/29 07:18:49;;;;;;;11.95;8.93;;;;;;;;;;4923352;28;20133;-74
2023/11/29 07:21:15;;;;;;;6.35;5.72;;;;;;;;;;4912616;28;20483;-75
2023/11/29 07:23:41;;;;;;;12.30;10.00;;;;;;;;;;4912957;28;20473;-75
2023/11/29 07:26:07;;;;;;;9.27;7.95;;;;;;;;;;4939270;29;20047;-76
2023/11/29 07:28:34;;;;;;;11.80;9.20;;;;;;;;;;4923798;29;20078;-77
2023/11/29 07:33:56;;;;;;;10.57;9.55;;;;;;;;;;4960757;28;20142;-74
2023/11/29 07:36:22;;;;;;;8.23;7.47;;;;;;;;;;4946589;28;20046;-75
2023/11/29 07:38:49;;;;;;;8.93;8.02;;;;;;;;;;4962767;28;20132;-74
2023/11/29 07:41:16;;;;;;;8.38;7.57;;;;;;;;;;4938450;28;20381;-75
2023/11/29 07:43:42;;;;;;;10.60;8.15;;;;;;;;;;4918817;28;20065;-76
2023/11/29 07:46:09;;;;;;;12.52;10.15;;;;;;;;;;4937243;29;20046;-74
2023/11/29 07:48:36;;;;;;;8.18;6.20;;;;;;;;;;4979200;28;20046;-76
2023/11/29 07:51:02;;;;;;;8.77;7.82;;;;;;;;;;4960850;28;20042;-77
2023/11/29 07:53:28;;;;;;;10.35;9.27;;;;;;;;;;4952577;28;20039;-77
2023/11/29 07:55:54;;;;;;;11.70;9.73;;;;;;;;;;4964214;28;20416;-75
2023/11/29 07:58:20;;;;;;;11.95;10.38;;;;;;;;;;4953977;28;20039;-75
2023/11/29 08:00:46;;;;;;;8.02;7.32;;;;;;;;;;4951599;28;20055;-76
2023/11/29 08:03:14;;;;;;;13.75;9.07;;;;;;;;;;4938945;28;20055;-77
2023/11/29 08:05:41;;;;;;;12.80;9.13;;;;;;;;;;4953231;28;20118;-75
2023/11/29 08:08:08;;;;;;;13.25;10.40;;;;;;;;;;4936280;29;20043;-74
2023/11/29 08:10:34;;;;;;;11.57;9.00;;;;;;;;;;4928327;28;20055;-74
2023/11/29 08:13:01;;;;;;;8.98;7.82;;;;;;;;;;4952141;28;20054;-75
2023/11/29 08:15:28;;;;;;;11.73;9.23;;;;;;;;;;4959558;28;20047;-76
2023/11/29 08:17:57;;;;;;;8.23;7.47;;;;;;;;;;4973874;28;20050;-76
2023/11/29 08:20:23;;;;;;;20.05;14.27;;;;;;;;;;4966817;28;20130;-80
2023/11/29 08:22:49;;;;;;;7.90;7.10;;;;;;;;;;4943767;28;20046;-75
2023/11/29 08:25:16;;;;;;;18.85;15.88;;;;;;;;;;4957655;28;20047;-74
2023/11/29 08:27:42;;;;;;;21.52;14.85;;;;;;;;;;4965445;28;20054;-78
2023/11/29 08:30:08;;;;;;;12.35;8.15;;;;;;;;;;4922657;29;20039;-74
2023/11/29 08:32:35;;;;;;;11.60;9.35;;;;;;;;;;4938485;29;20053;-74
2023/11/29 08:35:01;;;;;;;12.98;10.60;;;;;;;;;;4938787;28;20091;-75
2023/11/29 08:37:29;;;;;;;20.55;15.85;;;;;;;;;;4973644;28;20042;-75
2023/11/29 08:39:55;;;;;;;16.13;12.02;;;;;;;;;;4957464;28;20042;-76
2023/11/29 08:42:22;;;;;;;11.95;10.30;;;;;;;;;;4957529;28;20061;-75
2023/11/29 08:44:47;;;;;;;14.93;10.38;;;;;;;;;;4942113;28;20077;-76
2023/11/29 08:47:14;;;;;;;7.47;6.28;;;;;;;;;;4953648;28;20046;-76
2023/11/29 08:49:40;;;;;;;20.67;9.00;;;;;;;;;;4951681;28;20108;-76
2023/11/29 08:52:06;;;;;;;8.00;6.95;;;;;;;;;;4955506;28;20150;-75
2023/11/29 08:54:33;;;;;;;11.93;9.65;;;;;;;;;;4974739;28;20125;-75
2023/11/29 08:56:59;;;;;;;7.97;7.00;;;;;;;;;;4966602;28;20049;-75
2023/11/29 08:59:25;;;;;;;13.38;9.23;;;;;;;;;;4973832;28;20471;-77
2023/11/29 09:01:52;;;;;;;11.77;8.52;;;;;;;;;;4963892;28;20055;-75
2023/11/29 09:04:18;;;;;;;16.77;11.35;;;;;;;;;;4954035;29;20046;-77
2023/11/29 09:06:44;;;;;;;22.13;12.57;;;;;;;;;;4954552;28;20050;-75
2023/11/29 09:09:12;;;;;;;8.98;8.10;;;;;;;;;;4937125;28;20039;-75
2023/11/29 09:11:38;;;;;;;8.55;7.47;;;;;;;;;;4954804;28;20043;-75
2023/11/29 09:14:04;;;;;;;10.50;9.50;;;;;;;;;;4937195;28;20540;-76
2023/11/29 09:16:31;;;;;;;9.60;8.73;;;;;;;;;;4954832;28;20043;-74
2023/11/29 09:18:58;;;;;;;18.83;10.35;;;;;;;;;;4954743;28;20046;-73
2023/11/29 09:21:24;;;;;;;17.67;11.18;;;;;;;;;;4944015;29;20093;-76
2023/11/29 09:23:53;;;;;;;14.90;9.50;;;;;;;;;;4954708;29;20043;-74
2023/11/29 09:26:19;;;;;;;18.27;13.15;;;;;;;;;;4958383;28;20191;-76
2023/11/29 09:28:45;;;;;;;23.08;11.95;;;;;;;;;;4937069;29;20575;-76
2023/11/29 09:31:13;;;;;;;25.30;19.00;;;;;;;;;;4956463;28;20050;-76
2023/11/29 09:33:41;;;;;;;11.82;10.50;;;;;;;;;;4973635;28;20477;-74
2023/11/29 09:36:09;;;;;;;14.20;12.45;;;;;;;;;;4971561;28;20133;-74
2023/11/29 09:38:35;;;;;;;16.92;10.98;;;;;;;;;;4976395;28;20035;-76
2023/11/29 09:41:01;;;;;;;11.07;9.68;;;;;;;;;;4924375;28;20095;-76
2023/11/29 09:43:27;;;;;;;21.52;16.50;;;;;;;;;;4940402;28;20039;-78
2023/11/29 09:45:55;;;;;;;12.48;11.18;;;;;;;;;;4956136;28;20058;-76
2023/11/29 09:48:21;;;;;;;18.67;11.85;;;;;;;;;;4955833;28;20041;-76
2023/11/29 09:50:47;;;;;;;15.68;10.40;;;;;;;;;;4972591;28;20038;-77
2023/11/29 09:53:13;;;;;;;13.68;10.63;;;;;;;;;;4972944;28;20105;-76
2023/11/29 09:55:39;;;;;;;15.13;10.50;;;;;;;;;;4972828;28;20097;-77
2023/11/29 09:58:06;;;;;;;10.68;9.07;;;;;;;;;;4923227;29;20043;-77
2023/11/29 10:00:33;;;;;;;17.67;11.13;;;;;;;;;;4934308;28;20145;-76
2023/11/29 10:03:12;;;;;;;10.10;7.80;;;;;;;;;;4948195;28;20042;-75
2023/11/29 10:05:40;;;;;;;13.25;10.32;;;;;;;;;;4956315;28;20084;-76
2023/11/29 10:08:06;;;;;;;7.47;6.70;;;;;;;;;;4939636;28;20529;-76
2023/11/29 10:10:36;;;;;;;10.07;9.02;;;;;;;;;;4955571;28;20137;-75
2023/11/29 10:13:03;;;;;;;18.67;8.00;;;;;;;;;;4940407;28;20252;-76
2023/11/29 10:15:29;;;;;;;15.73;12.00;;;;;;;;;;4953234;28;20043;-75
2023/11/29 10:17:55;;;;;;;17.10;11.02;;;;;;;;;;4953880;28;20118;-75
2023/11/29 10:20:25;;;;;;;17.30;14.18;;;;;;;;;;4920196;28;20062;-75
2023/11/29 10:22:52;;;;;;;15.43;11.52;;;;;;;;;;4934055;28;20133;-75
2023/11/29 10:25:19;;;;;;;14.75;11.57;;;;;;;;;;4955263;28;20046;-75
2023/11/29 10:27:45;;;;;;;15.27;12.13;;;;;;;;;;4971230;28;20452;-75
2023/11/29 10:30:15;;;;;;;12.00;9.48;;;;;;;;;;4955193;28;20049;-75
2023/11/29 10:32:44;;;;;;;11.70;8.30;;;;;;;;;;4955343;28;20208;-75
2023/11/29 10:35:11;;;;;;;16.52;9.45;;;;;;;;;;4955141;28;20042;-74
2023/11/29 10:37:44;;;;;;;10.98;7.82;;;;;;;;;;4965882;28;20468;-75
2023/11/29 10:40:17;;;;;;;15.10;11.52;;;;;;;;;;4953857;28;20154;-79
2023/11/29 10:42:47;;;;;;;22.85;17.80;;;;;;;;;;4922466;29;20043;-81
2023/11/29 10:45:20;;;;;;;16.30;12.55;;;;;;;;;;4928100;29;20059;-80
2023/11/29 10:48:15;;;;;;;9.40;7.78;;;;;;;;;;4937777;28;20042;-80
2023/11/29 10:50:47;;;;;;;19.92;16.98;;;;;;;;;;4943026;28;20054;-75
2023/11/29 10:53:16;;;;;;;10.43;8.07;;;;;;;;;;4971961;28;20050;-75
2023/11/29 10:55:45;;;;;;;17.52;12.60;;;;;;;;;;4955532;28;20410;-76
2023/11/29 10:58:11;;;;;;;7.85;6.93;;;;;;;;;;4955042;28;20055;-75
2023/11/29 11:00:37;;;;;;;11.27;10.15;;;;;;;;;;4966056;28;20055;-76
2023/11/29 11:03:03;;;;;;;25.30;17.17;;;;;;;;;;4970536;28;20133;-76
2023/11/29 11:05:30;;;;;;;13.38;9.10;;;;;;;;;;4972168;28;20043;-75
2023/11/29 11:07:56;;;;;;;14.60;11.45;;;;;;;;;;4954825;28;20046;-76
2023/11/29 11:10:23;;;;;;;23.52;15.10;;;;;;;;;;4955169;28;20567;-77
2023/11/29 11:12:49;;;;;;;14.68;12.30;;;;;;;;;;4972400;28;20057;-76
2023/11/29 11:15:24;;;;;;;9.88;8.82;;;;;;;;;;4954509;28;20516;-76
2023/11/29 11:18:03;;;;;;;11.55;8.85;;;;;;;;;;4954582;28;20045;-76
2023/11/29 11:20:39;;;;;;;22.27;18.85;;;;;;;;;;4954488;28;20054;-77
2023/11/29 11:23:05;;;;;;;10.00;8.93;;;;;;;;;;4971463;28;20043;-77
2023/11/29 11:25:31;;;;;;;8.23;7.43;;;;;;;;;;4957561;28;20042;-80
2023/11/29 11:27:59;;;;;;;14.20;11.35;;;;;;;;;;4936094;29;20051;-76
2023/11/29 11:30:25;;;;;;;11.30;10.07;;;;;;;;;;4935409;29;20429;-77
2023/11/29 11:32:53;;;;;;;17.17;11.32;;;;;;;;;;4930614;28;20041;-76
2023/11/29 11:35:21;;;;;;;14.75;12.73;;;;;;;;;;4971746;28;20057;-77
2023/11/29 11:37:48;;;;;;;23.98;16.33;;;;;;;;;;4971502;28;20406;-76
2023/11/29 11:40:14;;;;;;;11.20;9.73;;;;;;;;;;4953072;28;20051;-77
2023/11/29 11:42:40;;;;;;;22.85;14.25;;;;;;;;;;4968949;28;20038;-77
2023/11/29 11:45:07;;;;;;;11.18;9.35;;;;;;;;;;4965304;28;20101;-79
2023/11/29 11:47:33;;;;;;;11.15;9.98;;;;;;;;;;4929007;29;20540;-77
2023/11/29 11:49:59;;;;;;;11.77;10.25;;;;;;;;;;4961267;28;20039;-76
2023/11/29 11:52:25;;;;;;;10.85;9.75;;;;;;;;;;4924850;28;20081;-78
2023/11/29 11:54:51;;;;;;;15.75;11.38;;;;;;;;;;4977088;28;20031;-77
2023/11/29 11:57:17;;;;;;;14.93;10.77;;;;;;;;;;4974807;28;20138;-78
2023/11/29 11:59:43;;;;;;;16.58;13.50;;;;;;;;;;4972354;28;20472;-77
2023/11/29 12:02:10;;;;;;;17.00;14.40;;;;;;;;;;4962549;28;20050;-81
2023/11/29 12:04:36;;;;;;;9.93;8.95;;;;;;;;;;4983686;28;20035;-82
2023/11/29 12:07:05;;;;;;;14.18;10.65;;;;;;;;;;4973862;28;20043;-81
2023/11/29 12:09:31;;;;;;;10.55;8.85;;;;;;;;;;4954533;29;20079;-81
2023/11/29 12:12:07;;;;;;;21.30;17.02;;;;;;;;;;4959920;29;20091;-81
2023/11/29 12:14:33;;;;;;;16.95;12.10;;;;;;;;;;4970787;29;20058;-80
2023/11/29 12:16:59;;;;;;;10.18;9.25;;;;;;;;;;4948083;29;20039;-81
2023/11/29 12:19:25;;;;;;;13.98;9.57;;;;;;;;;;4957396;29;20051;-82
2023/11/29 12:21:51;;;;;;;19.55;10.57;;;;;;;;;;4968639;29;20043;-79
2023/11/29 12:24:17;;;;;;;24.33;13.57;;;;;;;;;;4952451;29;20051;-80
2023/11/29 12:26:46;;;;;;;14.43;11.05;;;;;;;;;;4968042;29;20130;-80
2023/11/29 12:29:15;;;;;;;11.60;10.20;;;;;;;;;;4971277;29;20047;-80
2023/11/29 12:31:41;;;;;;;13.02;9.98;;;;;;;;;;4958073;29;20075;-81
2023/11/29 12:34:07;;;;;;;12.77;9.48;;;;;;;;;;4956100;29;20047;-81
2023/11/29 12:36:33;;;;;;;11.45;10.23;;;;;;;;;;4973772;29;20067;-81
2023/11/29 12:39:00;;;;;;;11.02;9.95;;;;;;;;;;4972177;29;20047;-81
2023/11/29 12:41:26;;;;;;;7.93;7.13;;;;;;;;;;4969919;29;20055;-81
2023/11/29 12:43:52;;;;;;;13.75;9.98;;;;;;;;;;4953121;29;20039;-81
2023/11/29 12:46:19;;;;;;;8.32;6.38;;;;;;;;;;4969519;29;20043;-82
2023/11/29 12:48:45;;;;;;;10.75;9.70;;;;;;;;;;4952577;29;20433;-81
2023/11/29 12:51:14;;;;;;;12.20;9.85;;;;;;;;;;4969905;29;20070;-80
2023/11/29 12:53:40;;;;;;;9.60;8.60;;;;;;;;;;4970637;28;20070;-81
2023/11/29 12:56:07;;;;;;;9.20;8.05;;;;;;;;;;4972947;28;20035;-78
2023/11/29 12:58:33;;;;;;;11.68;10.18;;;;;;;;;;4989811;28;20079;-81
2023/11/29 13:00:59;;;;;;;12.52;10.75;;;;;;;;;;4990372;28;20113;-81
2023/11/29 13:03:26;;;;;;;8.07;7.38;;;;;;;;;;4993121;28;20117;-82
2023/11/29 13:05:52;;;;;;;9.20;8.32;;;;;;;;;;4996259;28;20043;-81
2023/11/29 13:08:18;;;;;;;8.43;7.60;;;;;;;;;;4963389;28;20019;-81
2023/11/29 13:10:44;;;;;;;9.75;7.78;;;;;;;;;;4994190;28;20031;-82
2023/11/29 13:13:10;;;;;;;7.55;6.85;;;;;;;;;;4992884;28;20039;-83
2023/11/29 13:15:36;;;;;;;7.20;6.57;;;;;;;;;;4996331;28;20046;-83
2023/11/29 13:18:02;;;;;;;8.75;7.85;;;;;;;;;;4994735;28;20015;-82
2023/11/29 13:20:29;;;;;;;9.00;7.47;;;;;;;;;;4963651;28;20042;-82
2023/11/29 13:22:55;;;;;;;7.03;6.00;;;;;;;;;;4998044;28;20075;-82
2023/11/29 13:25:21;;;;;;;12.82;10.75;;;;;;;;;;4999861;28;20100;-83
2023/11/29 13:27:47;;;;;;;8.85;7.97;;;;;;;;;;4983070;28;20054;-83
2023/11/29 13:30:13;;;;;;;8.57;7.53;;;;;;;;;;5209924;23;20045;-83
2023/11/29 13:32:40;;;;;;;16.65;14.55;;;;;;;;;;5002593;28;20031;-84
2023/11/29 13:35:06;;;;;;;13.27;11.30;;;;;;;;;;5018891;28;20034;-84
2023/11/29 13:37:32;;;;;;;15.75;11.23;;;;;;;;;;5164858;23;20350;-82
2023/11/29 13:39:58;;;;;;;10.75;8.20;;;;;;;;;;5025540;23;20043;-85
2023/11/29 13:42:24;;;;;;;13.27;9.85;;;;;;;;;;5291670;23;20058;-84
2023/11/29 13:44:51;;;;;;;13.02;8.45;;;;;;;;;;5000250;28;20035;-84
2023/11/29 13:47:16;;;;;;;9.98;8.52;;;;;;;;;;5102101;23;20049;-83
2023/11/29 13:49:43;;;;;;;13.70;11.80;;;;;;;;;;5019463;28;20062;-84
2023/11/29 13:52:09;;;;;;;9.57;8.32;;;;;;;;;;5019006;28;20098;-85
2023/11/29 13:57:20;;;;;;;17.55;12.85;;;;;;;;;;4973914;28;20055;-84
2023/11/29 13:59:47;;;;;;;15.52;8.77;;;;;;;;;;4980039;28;20078;-84
2023/11/29 14:02:13;;;;;;;15.60;13.95;;;;;;;;;;4951672;28;20071;-82
2023/11/29 14:04:39;;;;;;;11.57;9.27;;;;;;;;;;5065223;23;20086;-84
2023/11/29 14:07:05;;;;;;;14.57;10.63;;;;;;;;;;4970516;28;20057;-80
2023/11/29 14:09:34;;;;;;;11.93;9.88;;;;;;;;;;4957543;28;20038;-79
2023/11/29 14:12:01;;;;;;;17.90;12.13;;;;;;;;;;4956271;28;20531;-77
2023/11/29 14:14:27;;;;;;;17.38;12.90;;;;;;;;;;4964101;28;20426;-77
2023/11/29 14:16:53;;;;;;;14.57;12.85;;;;;;;;;;4955576;28;20061;-77
2023/11/29 14:19:19;;;;;;;19.52;15.48;;;;;;;;;;4952436;29;20039;-77
2023/11/29 14:21:45;;;;;;;10.25;7.82;;;;;;;;;;4937254;29;20521;-77
2023/11/29 14:24:11;;;;;;;9.32;8.40;;;;;;;;;;4961720;28;20047;-77
2023/11/29 14:26:37;;;;;;;24.63;17.50;;;;;;;;;;4955999;28;20049;-77
2023/11/29 14:29:05;;;;;;;14.32;10.65;;;;;;;;;;4953974;28;20047;-77
2023/11/29 14:31:31;;;;;;;10.50;9.05;;;;;;;;;;4955288;29;20043;-77
2023/11/29 14:33:57;;;;;;;12.82;11.52;;;;;;;;;;4936980;29;20042;-77
2023/11/29 14:36:23;;;;;;;12.02;9.85;;;;;;;;;;4953139;29;20047;-77